METAR

METAR RPLL (MNL) – NINOY AQUINO INTERNATIONAL AIRPORT(MANILA INTERNATIONAL AIRPORT)
RPLL 031300Z 12008KT 070V150 9999 FEW025 27/22 Q1012 NOSIG RMK A2988
RPLL 031200Z 13007KT 070V160 9999 FEW025 27/22 Q1012 NOSIG RMK A2988
RPLL 031100Z 12006KT 080V150 9999 FEW025 27/22 Q1011 NOSIG RMK A2985
RPLL 031000Z 09005KT 050V160 9999 FEW025 29/21 Q1011 NOSIG RMK A2985
RPLL 030900Z 12009KT 060V180 9999 FEW025 29/21 Q1010 NOSIG RMK A2983
RPLL 030800Z 10008KT 070V140 9999 FEW025 31/21 Q1010 NOSIG RMK A2983
RPLL 030700Z 10009KT 070V150 9999 FEW025 BJKN100 32/12 Q1010 NOSIG RMK A2983
RPLL 030600Z 11006KT 060V180 9999 FEW025 BKN100 31/22 Q1011 NOSIG RMK A2985
RPLL 030500Z 12006KT 050V170 9999 SCT025 BKN100 31/22 Q1011 NOSIG RMK A2985
RPLL 030400Z 10006KT 060V180 9999 SCT025 SCT100 31/22 Q1012 NOSIG RMK A2988
RPLL 030300Z 12006KT 020V170 9999 SCT025 SCT100 30/22 Q1013 NOSIG RMK A2991
RPLL 030200Z 12006KT 060V190 9999 FEW025 SCT100 30/22 Q1013 NOSIG RMK A2991
RPLL 030100Z 10006KT 050V140 9999 FEW025 SCT100 BKN300 29/22 Q1014 NOISG RMK A2994
RPLL 030000Z 08005KT 060V120 9999 FEW025 BKN100 28/22 Q1013 NOSIG RMK A2991
RPLL 022300Z VRB01KT 9999 FEW025 BKN300 25/22 Q1013 NOSI RMK A2991
RPLL 022200Z VRB02KT 9999 FEW025 25/22 Q1012 NOSIG RMK A2988
RPLL 022100Z 08003KT 9999 FEW025 25/22 Q1011 NOSIG RMK A2985
RPLL 022000Z 12004KT 090V180 9999 FEW025 26/23 Q1011 NOSIG RMK A2985
RPLL 021900Z 11005KT 090V150 9999 FEW025 26/23 Q1012 NOSIG RMK A2988
RPLL 021800Z 12005KT 090V160 9999 FEW025 26/23 Q1011 NOSIG RMK A2985
RPLL 021700Z 11005KT 9999 FEW025 27/23 Q1012 NOSIG RMK A2988 u0000u0000u0000u0000u0000u0000u0000u0000
RPLL 021600Z 13005KT 090V170 9999 FEW025 27/23 Q1013 NOSIG RMK A2991
RPLL 021500Z 11005KT 080V140 9999 FEW025 SCT100 27/23 Q1013 NOSIG RMK A2991
RPLL 021400Z 11005KT 080V140 9999 FEW025 27/23 Q1013 NOSIG RMK A2991
RPLL 021200Z 10009KT 070V130 9999 FEW025 SCT100 28/23 Q1012 NOSIG RMK A2988
RPLL 021100Z 10008KT 070V130 9999 SCT025 28/23 Q1012 NOSIG RMK A2988
RPLL 021000Z 11011KT 9999 FEW025 29/24 Q1011 NOSIG RMK A2985
RPLL 020900Z 10010KT 9999 FEW025 30/24 Q1010 NOSIG RMK A2983
RPLL 020800Z 12009KT 080V150 9999 FEW025 31/24 Q1010 NOSIG RMK A2983
RPLL 020700Z 12010KT 090V180 9999 FEW025 32/24 Q1010 NOSIG RMK A2983
RPLL 020600Z METAR RPVM 020600Z 03011KT 9999 FEW020 SCT300 31/24 Q1010 NOSIG RMK A2983
RPLL 020500Z 12009KT 090V160 9999 FEW025 32/24 Q1012 NOSIG RMK A2988
RPLL 020400Z 11010KT 080V140 9999 FEW025 SCT100 31/22 Q1012 NOSIG RMK A2988
RPLL 020300Z 11009KT 080V140 9999 SCT025 BKN100 30/22 Q1014 NOSIG RMK A2994
RPLL 020200Z 11007KT 070V150 9999FEW025 SCT100 30/22 Q1014 NOSIG RMK A2994
RPLL 020100Z 10003KT 060V130 9999 FEW025 BKN100 28/25 Q1014 NOSIG RMK A2994
RPLL 020000Z 10003KT 060V130 9999 SCT025 BKN100 27/23 Q1013 NOSIG RMK A2991
RPLL 012300Z 09004KT 9999 SCT025 BKN100 27/23 Q1013 NOSIG RMK A2991

RPVM (CEB) – MACTAN-CEBU INTERNATIONAL AIRPORT
RPVM 031300Z 01008KT 9999 FEW020 SCT100 27/24 Q1011 NOSIG RMK A2985
RPVM 031200Z 02009KT 9999 FEW020 BKN100 27/24 Q1011 NOSIG RMK A2985
RPVM 031100Z 01010KT 9999 FEW020 BKN100 27/24 Q1010 NOSIG RMK A2983
RPVM 031000Z 01011KT 9999 FEW020 SCT100 BKN300 27/24 Q1010 NOSIG RMK A2983
RPVM 030900Z 03018KT 9999 SCT020 BKN100 28/25 Q1009 NOSIG RMK A2980
RPVM 030800Z 03011KT 9999 FEW020 SCT100 BKN250 30/24 Q1009 NOSIG RMK A2980
RPVM 030700Z 03015KT 9999 FEW020 SCT100 BKN250 30/23 Q1009 NOSIG
RPVM 030600Z 03016KT 9999 SCT020 SCT100 BKN300 31/24 Q1009 NOSIG RMK A2980
RPVM 030500Z 03015KT 9999 FEW020 BKN100 30/25 Q1011 NOSIG RMK A2983
RPVM 030400Z 02016KT 9999 FEW020 SCT100 BKN300 30/24 Q199 METAR RPMD 030400Z 04008KT 9999 SCT020 31/22 Q1008 RMK A2977- METAR RPLB 030400Z 07016KT 030V090 9999 SCT020 BKN300 31/20 Q1012 NOSIG RMK A2988
RPVM 030300Z 02018KT 9999 FEW020 BKN300 30/24 Q1011 NOSIG RMK A2985
RPVM 030200Z 02016KT 9999 FEW020 SCT100 BKN300 29/24 Q1012 RMK A2988
RPVM 030100Z 02016K1T 9999 FEW018CB BKN100 28/24 Q1012 NOSIG RMK A2988 CB SWS
RPVM 030000Z 01011KT 9999 FEW018CB SCT100 BKN300 27/24 Q1012 TEMPO -RA 8000 RMK A2988 CB SW
RPVM 022300Z 350007KT 330V030 9999 FEW020 BKN300 26/23 Q1011 NOSIG RMK A2985
RPVM 022200Z 02006KT 9999 FEW020 SCT300 26/23 Q1011 NOSIG RMK A2985
RPVM 022100Z 36005KT 9999 FEW020 SCT100 26/24 Q1010 NOSIG RMK A2983
RPVM 022000Z 34007KT 9999 FEW020 SCT100 25/24 Q1010 NOSIG RMK A2983
RPVM 021900Z 01007KT 9999 FEW020 SCT300 25/24 Q1010 NOSIG RMK A2983
RPVM 021800Z 01007KT 9999 FEW020 SCT300 26/24 Q1010 NOSIG RMK A2983
RPVM 021700Z 35009KT 9999 FEW018CB SCT100 26/24 Q1011 NOSIG RMK A2985 CB W-NW
RPVM 021600Z 01005KT 9999 FEW018CB SCT100 26/25 Q1012 NOSIG RMK A2988 CB N-NE
RPVM 021500Z 36006KT 340V040 9999 FEW020 SCT100 27/25 Q1012 NOSIG RM
RPVM 021400Z 03005KT 9999 FEW020 SCT100 27/25 Q1012 NOSIG RMK A2988
RPVM 021200Z 04010KT 9999 FEW018CB SCT100 28/25 Q1011 TEMPO 8000 -SHRA RMK A2985 OCNL LTG N-NE
RPVM 021100Z 03009KT 9999 FEW020 28/24 Q1011 NOSIG RMK A2985
RPVM 021000Z 03008KT 9999 FEW020 29/24 Q1010 NOSIG A2983
RPVM 020900Z 03010KT 9999 FEW020 30/23 Q1010 NOSIG RMK A2983
RPVM 020800Z 03008KT 9999 FEW020 SCT300 30/24 Q1010 NOSIG RMK A2983
RPVM 020700Z 04007KT 9999 FEW020 SCT3300 31/24 Q1010 NOSIG RMK A2983
RPVM 020600Z 03011KT 9999 FEW020 SCT300 31/24 Q1010 NOSIG RMK A2983
RPVM 020500Z 03012KT 9999 SCT020 31/24 Q1011 NOSIG RMK A2985
RPVM 020400Z 02014KT 9999 SCT020 30/25 Q1012 RERA NOSIG RMK A2988
RPVM 020300Z 02017KT 9999 FEW020 BKN100 30/24 Q1013 NOSIG RMK A2991
RPVM 020100Z 02013KT 9999 FEW020 SCT300 29/24 Q1013 NOSIG RMK A2991
RPVM 020000Z 01011KT 9999 FEW018CB 27/23 Q1013 NOSIG RMK A2991 CB S
RPVM 012300Z 36005KT 340V050 9999 FEW018CB 26/22 Q1012 NOSIG RMK A2988 CB SE

RPLC (CRK) – CLARK INTERNATIONAL AIRPORT
RPLC 031200Z 07004KT 9999 SCT020 BKN100 27/19 Q1013 NOSIG RMK A2991
RPLC 031100Z 14004KT 9999 SCT020 BKN300 27/19 Q1012 NOSIG RMK A2988
RPLC 031000Z 14004KT 9999 SCT020 BKN300 28/20 Q1012 NOSIG RMK A2988
RPLC 030900Z 14008KT 9999 FEW020 BKN300 30/20 Q1011 N0SIG RMK A2985
RPLC 030800Z 14004KT 9999 FEW020 BKN300 31/21 Q1011 NOSIG RMK A2985
RPLC 030700Z 16004KT 9999 FEW020 BKN300 32/21 Q1011 NOSIG RMK A2985
RPLC 030600Z 09004KT 9999 SCT020 BKN300 32/22 Q1011 NOSIG RMK A2985
RPLC 030500Z 040084KT 9999 SCT020 BKN300 32/21 Q1012 NOSIG RMK A2988
RPLC 030400Z 02010KT 9999 SCT020 BKN300 31/22 NOSIG RMK A2994
RPLC 030300Z 02006KT 9999 SCT020 BKN300 30/21 Q1014 NOSIG RMK A2994
RPLC 030200Z 04008KT 9999 SCT020 BKN300 29/21 Q1015 NOSIG RMK A2997
RPLC 030100Z 02004KT 9999 SCT020 28/21 Q10115 NOSIG RMK A2997
RPLC 030000Z 04010KT 9999 SCT020 27/21 Q1015 NOSIG RMK A2997 u0000u0000u0000u0000u0000u0000u0000u0000
RPLC 022300Z 32002KT 9999 FEW020 SCT100 25/20 Q10114 NOSIG RMK A2994
RPLC 022200Z 32002KT 9999 SCT020 BKN100 25/20 Q1013 NOSIG RMK A2991
RPLC 022100Z 34002KT 9999 FEW020 SCT100 25/20 Q1013 NOSIG RMK A2991
RPLC 021900Z 27004KT 9999 FEW020 SCT100 25/20 Q1012 NOSIG RMK A2988
RPLC 021800Z 27004KT 9999 FEW020 26/21 Q1013 NOSIG RMK A2991
RPLC 021600Z 25004KT 9999 FEW020 SCT300 26/21 Q1014 NOSIG RMK A2994
RPLC 021500Z 25004KT 9999 FEW020 26/21 Q1014 NOSIG RMK A2994
RPLC 021200Z 14004KT 9999 FEW020 BKN100 27/21 Q1014 NOSIG RMK A2994
RPLC 021100Z 12004KT 9999 FEW020 28/21 Q1013 NOSIG RMK A2991
RPLC 021000Z 09004KT 9999 FEW020 29/21 Q1012 NOSIG RMK A2988
RPLC 020900Z 09004KT 9999 FEW020 31/22 Q1012 NOSIG RMK A2988
RPLC 020800Z 09002KT 9999 SCT020 31/22 Q1011 NOSIG RMK A2985
RPLC 020700Z 09004KT 9999 SCT020 32/22 Q1011 NOSIG RMK A2985
RPLC 020600Z 06006KT 9999 FEW020 BKN100 32/22 Q1012 NOSIG RMK A2988
RPLC 020400Z 04006KT 9999 SCT020 BKN100 31/22 Q1014 NOSIG RMK A2994
RPLC 020300Z 36006KT 9999 SCT020 BKN100 28/22 Q1015 NOSIG RMK A2997
RPLC 020100Z 34004KT 9999 SCT020 BKN100 27/21 Q1016 NOSIG RMK A3000
RPLC 020000Z 32004KT 9999 SCT020 BKN100 26/209 Q1015 NOSIG RMK A2997
RPLC 012300Z 36004KT 9999 FEW020 BKN100 24/20 Q1015 NOSIG RMK A2997

RPLB (SFS) – SUBIC BAY INTERNATIONAL AIRPORT
RPLB 031300Z 04005KT 360V060 9999 FEW020 26/20 Q1013 NOSIG RMK A2991
RPLB 031200Z 04006KT 9999 FEW020 27/20 Q1012 NOSIG RMK A2988
RPLB 031100Z 05006KT 020V080 9999 FEW020 SCT300 28/20 Q1012 NOSIG RMK A2988
RPLB 031000Z 06005KT 9999 SCT020 BKN300 29/20 Q1011 NOSIG RMK A2985
RPLB 030900Z 07011KT 040V100 9999 SCT020 BKN300 30/20 Q1011 NOSIG RMKA2985
RPLB 030800Z 07013KT 9999 FEW020 BKN300 31/20 Q1010 NOSIG RMK A2983
RPLB 030700Z 07014KT 030V090 9999 FEW020 BKN300 32/20 Q1010 RMK A2983
RPLB 030600Z 08013KT 040V100 9999 FEW020 BKN300 32/20 Q1011 NOSIG RMK A2985
RPLB 030500Z 08014KT 040V110 9999 FEW020 BKN300 32/20 Q1012 NOSIG RMK A2988
RPLB 030400Z 07016KT 030V090 9999 SCT020 BKN300 31/20 Q1012 NOSIG RMK A2988
RPLB 030300Z 06012KT 040V100 9999 FEW020 BKN300 30/21 Q1013 NOSIG RMK A2991
RPLB 030200Z 05012KT 9999 FEW020 BKN300 29/21 Q1014 NOSIG RMK A2994
RPLB 030100Z 06012KT 9999 FEW020 BKN300 28/21 Q1014 NOSIG RMK A2994
RPLB 030000Z 06009KT 9999 FEW020 BKN300 27/21 Q1013 NOSIG RMK A2991
RPLB 022300Z 07005KT 9999 FEW018 24/21 Q1013 NOSIG RMK A2991
RPLB 022200Z 09009KT 9999 FEW018 25/21 Q1012 NOSIG RMK A2988
RPLB 022100Z 08010KT 9999 FEW018 25/21 Q1011 NOSIG RMK A2985
RPLB 022000Z 07008KT 9999 FEW018 25/21 Q1012 NOSIG RMK A2988
RPLB 021900Z 08009KT 9999 FEW018 26/21 Q1012 NOSIG RMK A2988
RPLB 021800Z 06006KT 020V090 9999 FEW018 268/21 Q1012 NOSIG RMK A2988
RPLB 021700Z 06004KT 010V090 9999 FEW018 25/21 Q1012 NOSIG RMK A2988
RPLB 021600Z 03005KT 350V060 9999 FEW018 26/22 Q1013 NOSIG RMK A2991
RPLB 021500Z VRB02KT 9999 FEW020 26/21 Q1013 NOSIG RMK A2991
RPLB 021200Z 06007KT 9999 FEW020 28/22 Q1013 NOSIG RMK A2991
RPLB 021100Z 36005KT 310V040 9999 SCT020 BKN080 28/23 Q1012 NOSIG RMK A2988
RPLB 021000Z 33004KT 280V060 9999 FEW020 BKN080 32/21 Q1012 NOSIG RMK A2988
RPLB 020900Z 07011KT 040V110 9999 FEW020 SCT080 32/21 Q1011 NOSIG RMK A2985
RPLB 020800Z 08011KT 040V110 9999 FEW020 SCT080 32/22 Q1011 NOSIG RMK A2985
RPLB 020700Z 09011KT 9999 FEW020 BKN080 32/22 Q1011 NOSIG RMK A2985
RPLB 020600Z 08011KT 9999 FEW020 BKN080 32/21 Q1011 NOSIG RMK A2985
RPLB 020500Z 06010KT 020V090 9999 FEW020 BKN080 31/22 Q1012 NOSIG RMK A2988
RPLB 020400Z 07013KT 9999 FEW020 BKN080 31/21 Q1014 NOSIG RMK A2994
RPLB 020300Z 08011KT 9999 FEW020 BKN080 29/21 Q1015 NOSIG RMK A2997
RPLB 020200Z 06008KT 020V080 9999 FEW020 BKN080 28/21 Q1015 NOSIG RMK A2997
RPLB 020100Z 08006KT 9999 FEW020 27/21 Q1015 NOSIG RMK A2997
RPLB 020000Z 08009KT 9999 FEW020 BKN080 27/21 Q1014 NOSIG RMK A2994
RPLB 012300Z 06009KT 020V090 9999 FEW020 BKN080 26/21 Q1013 NOSIG RMK A2991

RPLI (LAO) – LAOAG INTERNATIONAL AIRPORT
RPLI 031200Z 05004KT 9999 FEW018 BKN290 27/20 Q1011 NOSIG RMK A2985
RPLI 031100Z 04005KT 9999 FEW018 SCT290 28/21 Q1010 NOSIG RMK A2983
RPLI 031000Z 01006KT 9999 FEW018 SCT290 29/21 Q1009 NOSIG RMK A2980
RPLI 030900Z 36008KT 9999 FEW018 SCT290 31/23 Q1009 NOSIG RMK A2980
RPLI 030800Z 35011KT 9999 FEW018 31/24 Q1009 NOSIG RMK A2980
RPLI 030700Z 35009KT 9999 FEW018 32/23 Q1009 NOSIG RMK A2980
RPLI 030600Z 32008KT 290V350 9999 FEW018 32/23 Q1010 NOSIG RMK A2983
RPLI 030500Z 31007KT 260V350 9999 FEW018 31/22 Q1011 NOSIG RMK A2985
RPLI 030400Z 30006KT 260V340 9999 FEW018 29/13 NOSIG RMK A2988
RPLI 030300Z 29005KT 250V320 9999 FEW018 29/21 Q1013 NOSIG RMK A2991
RPLI 030200Z 30004KT 270V350 9999 FEW018 29/21 Q1014 NOSIG RMK A2994
RPLI 030100Z VRB02KT 9999 FEW018 28/21 Q1014 NOSIG RMK A2994
RPLI 030000Z 06003KT 030V090 7000 FEW018 24/21 Q1013 NOSIG RMK A2991
RPLI 022300Z 06003KT 8000 FEW018 21/20 Q1013 NOSIG RMK A2991
RPLI 022200Z VRB02KT 8000 FEW018 21/20 Q1012 NOSIG RMK A2988
RPLI 022100Z VRB01KT 9999 FEW018 22/20 Q1011 NOSIG RMK A2985
RPLI 021800Z VRB02KT 9999 FEW018 BKN290 23/21 Q1011 NOSIG RMK A2985
RPLI 021500Z VRB01KT 9999 FEW018 25/21 Q1012 NOSIG RMK A2988
RPLI 021200Z 02003KT 340V050 9999 FEW018 26/22 Q1012 NOSIG RMK A2988
RPLI 021100Z VRB02KT 9999 FEW018 28/22 Q1011 NOSIG RMK A2985
RPLI 021000Z 21003KT 190V250 9999 FEW018 29/21 Q1011 NOSIG RMK A2985
RPLI 020900Z 21004KT 180V250 9999 FEW018 31/21 Q1011 NOSIG RMK A2985
RPLI 020800Z 26005KT 220V310 9999 FEW018 30/22 Q1010 NOSIG RMK A2983
RPLI 020700Z 25005KT 220V280 9999 FEW018 31/22 Q1011 NOSIG RMK A2985
RPLI 020600Z 29006KT 210V320 9999 FEW018 30/21 Q1011 NOSIG RMK A2985
RPLI 020500Z 29006KT 220V330 9999 FEW018 30/21 Q1012 NOSIG RMK A2988
RPLI 020400Z30004KT 240V340 9999 FEW018 30/21 Q1013 NOSIG RMK A2991
RPLI 020300Z 26005KT 220V320 9999 FEW018 29/21 Q1014 NOSIG RMK A2994
RPLI 020200Z 27004KT 240V310 9999 FEW018 29/22 Q1014 NOSIG RMK A2994
RPLI 020100Z VRB02KT 8000 FEW018 27/21 Q1015 NOSIG RMK A2997
RPLI 020000Z VRB02KT 7000 FEW018 24/20 Q1014 NOSIG RMK A2994
RPLI 012300Z 07003KT 8000 FEW018 21/20 Q1014 NOSIG RMK A2994

RPVP (PPS) – PUERTO PRINCESA INTERNATIONAL AIRPORT
RPVP 031200Z 06012KT 9999 FEW019 27/24 Q1010 RMK A2983
RPVP 031100Z 09014KT 9999 FEW019 SCT240 27/24 Q1009 RMK A2980
RPVP 031000Z 09016KT 9999 FEW019 SCT249 28/24 Q1008 RMK A2977
RPVP 030900Z 09014KT 9999 FEW019 SCT240 30/25 Q1008 RMK A2977
RPVP 030800Z 09012KT 9999 FEW019 SCT240 30/25 Q1008 RMK A2977
RPVP 030700Z 09006KT 9999 FEW019 SCT240 30/25 Q1008 RMK A2977
RPVP 030600Z 06014KT 9999 FEW019 SCT250 30/25 Q1009 RMK A2980
RPVP 030500Z 06014KT 9999 FEW019 31/25 Q1010 RMK A2983
RPVP 030400Z 06014KT 9999 FEW019 30/25 Q1011 RMK A2985
RPVP 030300Z 06014KT 9999 FEW019 SCT250 31/25 Q1011 RMK A22985
RPVP 030200Z 06014KT 9999 FEW019 SCT250 30/224 Q1011 RMK A2985
RPVP 030100Z 06010KT 9999 FEW019 29/24 Q1012 RMK A2988
RPVP 030000Z 33006KT 9999 FEW019 SCT250 26/23 Q1011 RMK A2985
RPVP 022300Z 27004KT 9999 FEW019 BKN240 25/23 Q1010 RMK A2983
RPVP 022200Z 27004KT 9999 FEW019 25/23 Q1009 RMK A2980
RPVP 022100Z 27004KT 9999 FEW019 25/23 Q1009 RMK A2980
RPVP 021800Z 27004KT 9999 FEW019 25/24 Q1010 RMK A2983
RPVP 021500Z 27006KT 9999 FEW019 26/24 Q1011 RMK A2985
RPVP 021200Z 09004KT 9999 FEW019 28/25 Q1010 RMK A2983
RPVP 021100Z 09004KT 9999 FEW019 28/25 Q1010 RMK A2983
RPVP 021000Z 09006KT 9999 FEW019 29/25 Q1009 RMK A2980
RPVP 020900Z 09008KT 9999 FEW019 29/25 Q1009 RMK A2980
RPVP 020800Z 09016KT 9999 FEW019 30/25 Q1009 RMK A2980
RPVP 020700Z 09008KT 9999 FEW019 SCT240 31/25 Q1009 RMK A2980
RPVP 020600Z 12010KT 9999 FEW019 SCT240 31/25 Q1009 RMK A2980
RPVP 020400Z 09012KT 9999 FEW019 BKN240 31/25 Q1011 RMK A2985
RPVP 020300Z 09012KT 9999 FEW019 SCT240 30/24 Q1012 RMK A2988
RPVP 020100Z 06010KT 9999 FEW019 30/25 Q1012 RMK A2988
RPVP 020000Z 06010KT 9999 FEW019 SCT240 28/24 Q1012 RMK A2988
RPVP 012300Z 06010KT 9999 FEW019 SCT080 26/24 Q1011 RMK A2985

RPVD (DGT) – SIBULAN AIRPORT (DUMAGUETE AIRPORT)
RPVD 031200Z 32006KT 9999 SCT015 27/24 Q1010 RMK A2983
RPVD 030900Z 32006KT 9999 VCSH FEW014CB SCT015 OVC070 29/25 Q1008 RMK A2977 CB VCSH SW
RPVD 030800Z 02004KT 9999 SCT015 OVC070 29/24 Q1008 RMK A2977
RPVD 030700Z 07008KT 9999 SCT015 OVC070 29/24 Q1008 RMK A2977
RPVD 030600Z 02010KT 9999 SCT015 OVC070 29/25 Q1008 RMK A2977
RPVD 030500Z 32012KT 9999 SCT015TCU BKN220 29/25 Q1009 RMK A2980 TCU W
RPVD 030400Z 32008KT 9999 FEW024 BKN220 30/23 Q1010 RMK A2983
RPVD 030300Z 34008KT 9999 FEW024 SCT220 29/25 Q1011 RESHRA RMK A2985
RPVD 030200Z 32008KT 9999 VCSH SCT015 OVC070 28/24 Q1011 RMK A2985 VCSH N
RPVD 030100Z 04004KT 9999 FEW024 SCT070 28/24 Q1010 RMK A2983
RPVD 030000Z 02006KT 9999 FEW024 SCT070 28/23 Q1011 RMK A2985
RPVD 022100Z 29004KT 9999 FEW015 SCT070 26/24 Q1009 RMK A2980
RPVD 021800Z 34008KT 9999 SCT015 BKN070 26/24 Q1009 RMK A2980
RPVD 021500Z 32006KT 9999 SCT015 BKN070 27/24 Q1011 RMK A2985
RPVD 021200Z 29008KT 9999 FEW015 BKN220 27/24 Q1010 RMK A2983
RPVD 020900Z 32004KT 9999 FEW024 SCT220 29/25 Q1009 RMK A2980
RPVD 020800Z 32010KT 9999 BKN015TCU 30/24 Q1009 RMK A2980 TCU NE NW
RPVD 020700Z 04010KT 9999 BKN015TCU 29/25 Q1009 RMK A2980 TCU SW W NW
RPVD 020600Z 34010KT 9999 SCT015TCU 31/25 Q1009 RMK A2980 TCU N NE NW
RPVD 020400Z 32010KT 9999 FEW024TCU 30/25 Q1011 RESHRA RMK A2985 TCU NE NW
RPVD 020300Z 29010KT 9999 -SHRA SCT015 BKN070 28/24 Q1012 RMK A2988
RPVD 020100Z 29006KT 9999 VCSH SCT015 BKN070 27/25 Q1012 RESHRA RMK A2988 VCSH SW-W METAR RPVM 020100Z 01008KT 9999 FEW018CB SCT080 29/24 Q1011 RMK A2985 CB NW
RPVD 020000Z 29006KT 9999 SCT015 BKN070 27/25 Q1012 RMK A2988

RPMR (GES) – GENERAL SANTOS INTERNATIONAL AIRPORT
RPMR 030900Z 02010KT 9999 FEW018 SCT250 31/20 Q1007 RMK A2974
RPMR 030800Z 01013KT 9999 FEW018 32/20 Q1007 RMK A2974
RPMR 030700Z 01010KT 350V050 9999 FEW018 33/20 Q1006 RMK A2971
RPMR 030600Z 01011KT 330V050 9999 FEW018 32/20 Q1007 RMK A2974
RPMR 030500Z 04010KT 360V060 9999 FEW018 SCT2250 32/21 Q1008 RMK A2977
RPMR 030400Z 04012KT 9999 FEW018 SCT250 31/20 Q1009 RMK A2980
RPMR 030300Z 03011KT 340V060 9999 SCT018 30/21 Q1009 RMK A2980
RPMR 030200Z 01011KT 9999 FEW018 SCT250 29/21 Q1010 RMK A2983
RPMR 030100Z 02006KT 350V050 9999 FEW018 SCT250 28/22 Q1010 RMK A2983
RPMR 030000Z 36008KT 330V030 9999 FEW018 SCT250 28/22 Q1010 RMK A2983
RPMR 020900Z 13003KT 100V160 9999 FEW017CB SCT080 29/24 Q1008 RMK A2977 CB N W
RPMR 020800Z 09005KT 9999 SCT018 31/22 Q1007 RMK A2974
RPMR 020700Z 14005KT 080V170 9999 SCT018 31/23 Q1007 RMK A2974
RPMR 020600Z 03010KT 010V070 9999 SCT018 33/20 Q1007 RMK A2974
RPMR 020400Z 02010KT 350V050 9999 FEW018 SCT2520 32/22 Q1010 1RMK A2983
RPMR 020300Z 02010KT 350V060 9999 FEW018 SCT250 31/23 Q1011 RMK A2985

RPMD (DVO) – FRANCISCO BANGOY INTERNATIONAL AIRPORT
RPMD 031300Z 36008KT 9999 FEW016 BKN290 27/22 Q1010 RMK A2983
RPMD 031200Z 04004KT 9999 FEW016 SCT290 28/22 Q1009 RMK A2980
RPMD 031100Z 02004KT 9999 FEW020 SCT260 28/23 Q1008 RMK A2977
RPMD 031000Z 02004KT 9999 FEW020 BKN260 29/23 Q1008 RMK A2977
RPMD 030900Z 36012KT 9999 FEW020 32/24 Q1006 RMK A2971
RPMD 030700Z 36012KT 9999 FEW020 32/23 Q1006 RMK A2971
RPMD 030600Z 01010KT 9999 SCT020 32/23 Q1007 RMK A2974
RPMD 030500Z 01008KT 9999 SCT020 32/23 Q1008 RMK A2977
RPMD 030400Z 04008KT 9999 SCT020 31/22 Q1008 RMK A2977
RPMD 030300Z 36008KT 9999 SCT020 BKN260 31/24 Q1009 RMK A2980
RPMD 030200Z 01010KT 9999 FEW020 BKN250 29/24 Q1010 RMK A2983
RPMD 030100Z 01010KT 9999 FEW016 SCT090 BKN250 28/23 Q1010 RMK A2983
RPMD 030000Z 04006KT 9999 FEW015 SCT090 BKN250 27/23 Q1010 RMK A2983
RPMD 022300Z 01006KT 9999 FEW015 SCT090 BKN260 25/23 Q1010 RMK A2983 VCSH ENE
RPMD 022200Z 01006KT 9999 VCSH FEW015 SCT090 BKN260 25/23 Q1009 RMK A2980 VCSH W
RPMD 022100Z 02004KT 9999 FEW016 BKN260 25/23 Q1009 RMK A2980
RPMD 021900Z 03006KT 9999 VCSH FEW015 BKN090 BKN260 25/23 Q1008 RMK A2977 VCSH NE
RPMD 021800Z 04008KT 9999 FEW016 BKN090 25/23 Q1008 RMK A2977
RPMD 021700Z 36002KT 9999 FEW016 SCT290 25/23 Q1009 RERA RMK A2980
RPMD 021600Z 00000KT 8000 -RA FEW016 BKN080 BKN260 26/23 Q1010 RMK A2983
RPMD 021500Z 36004KT 9999 FEW016 SCT090 26/23 Q1011 RMK A2985
RPMD 021200Z 36004KT 9999 FEW016 SCT290 27/23 Q1010 RMK A2983
RPMD 021100Z 02004KT 9999 FEW016 SCT260 28/23 Q1009 RMK A2980
RPMD 021000Z 04008KT 9999 FEW018 29/23 Q1008 RMK A2977
RPMD 020900Z 02008KT 9999 FEW016 30/24 Q1008 RMK A2977
RPMD 020800Z 08004KT 9999 FEW015CB SCT090 BKN250 31/24 Q1007 RMKA2974 CB SW
RPMD 020700Z 18008KT 9999 SCT016 BKN080 27/24 Q1007 RESHRA RMK A2974
RPMD 020600Z 02007KT 340V060 9999 FEW015CB SCT080 32/24 Q1007 RMK A2974 CB SE SW
RPMD 020500Z 04007KT 340V070 9999 FEW020 32/24 Q1008 RMK A2977
RPMD 020400Z 03006KT 330V070 9999 FEW020 32/26 Q1009 RMK A2980
RPMD 020300Z 030037KT 340V080 9999 FEW018 30/24 Q1010 RMK A2983
RPMD 020200Z 35006KT 300V040 9999 BKN018 28/25 Q1011 RMK A2985
RPMD 020100Z 35004KT 310V040 9999 SCT015 SCT090 27/26 Q1011 RMK A2985
RPMD 020000Z 01006KT 340V040 9999 SCT015 SCT090 27/26 Q1012 RMK A2988
RPMD 012300Z 03004KT 350V050 9999 FEW015 BKN090 BKN260 25/25 Q1011 RMK A2985

RPMZ (ZAM) – ZAMBOANGA INTERNATIONAL AIRPORT
RPMZ 031200Z 01001KT 9999 FEW017 BKN300 27/24 Q1009 RMK A2980
RPMZ 031000Z 24003KT 210V270 9999 FEW017 BKN300 29/23 Q1007 RMK A2974
RPMZ 030900Z 26004KT 200V290 9999 FEW017 SCT300 29/23 Q1007 RMK A2974
RPMZ 030800Z 25006KT 170V290 9999 FEW017 SCT090 30/24 Q1007 RMK A2974
RPMZ 030600Z 25007KT 190V290 9999 FEW017 SCT300 30/25 Q1008 RMK A2977
RPMZ 030500Z 26007KT 190V290 9999 FEW017 SCT090 30/25 Q1008 RMK A2977
RPMZ 030400Z 26008KT 230V290 9999 SCT017 29/24 Q1009 RMK A2980
RPMZ 030300Z 27008KT 220V330 9999 FEW017 SCT090 28/25 Q1010 RMK A2983
RPMZ 030200Z 26006KT 160V290 9999 FEW017 SCT300 29/25 Q1010 RMK A2983
RPMZ 030100Z VRB02OT 9999 FEW017 SCT300 30/23 Q1010 RMK A2983
RPMZ 030000Z 03003KT 340V060 9999 FEW017 BKN300 28/23 Q1010 RMK A2983
RPMZ 022300Z 00000KT 9999 FEW017 BKN300 25/24 Q1009 RMK A2980
RPMZ 022200Z VRB01KT 9999 FEW017 SCT090 24/23 Q1009 RMK A2980
RPMZ 022100Z VRB02KT 9999 FEW017 BKN090 24/24 Q1008 RMK A2977
RPMZ 021800Z VRB02KT 9999 FEW016CB BKN090 25/24 Q1008 RMK A2977 CB NW/S-SW
RPMZ 021500Z 08003KT 9999 FEW016CB BKN090 26/25 Q1010 R
RPMZ 021200Z VRB01KT 9999 FEW017 27/25 Q1009 RMK A2980
RPMZ 021000Z 25006KT 220V280 FEW017 28/25 Q1008 RMK A2977
RPMZ 020900Z 26007KT 230V290 9999 FEW017 30/24 Q1008 RMK A2977
RPMZ 020800Z 26008KT 230V290 9999 FEW016CB SCT300 30/24 Q1008 RMK A2977 CB NW
RPMZ 020700Z 26008KT 220V280 9999 FEW017TCU SCT300 30/24 Q1008 RMK A2977 TCU NW
RPMZ 020600Z 26007KT 150V290 9999 FEW017TCU SCT300 31/25 Q1008 RMK A2977 TCU NW
RPMZ 020500Z 22006KT 160V280 9999 FEW016CB FEW017 SCT090 31/26 Q1010 RMK A2983 CB NW S
RPMZ 020400Z 26004KT 220V300 9999 FEW016CB FEW017 BKN090 29/25 Q1010 RMK A2983 CB NW S
RPMZ 020300Z 23005KT 180V270 9999 FEW017TCU BKN090 30/24 Q1011 RMK A2985 TCU NW SE
RPMZ 020200Z VRB02KT 9999 FEW017 BKN090 30/24 Q1010 RMK A2985
RPMZ 020100Z 10004KT 060V140 9999 FEW017 SCT090 29/24 Q1011 RMK A2985
RPMZ 020000Z VRB02KT 9999 FEW017 SCT090 28/24 Q1011 RMK A2985
RPMZ 012300Z VRB02KT 9999 FEW017 SCT300 25/24 Q1010 RMK A2983